Alanreed, TX (79002)

8:06 PM CST on February 09, 2016 (GMT -0600)
WT_Meso | | Change Station
CLOSE
Current Station
Personal Weather Station
Location: Pampa, TX
Elevation: 3215 ft
Nearby Weather Stations

Elev 3215 ft 35.54 °N, 100.93 °W | Updated 21 minutes ago

Clear
Clear
44 °F
Feels Like 42 °F
N
4
Wind Variable Wind from SE
Gusts 4.0 mph

Today
High -- | Low -- °F
--% Chance of Precip.
Yesterday
High -- | Low -- °F
Precip. -- in
Pressure 30.30 in
Visibility 10.0 miles
Clouds Clear
Windchill 42 °F
Dew Point 27 °F
Humidity 53%
Rainfall in
Snow Depth Not available.
7:36 AM 6:18 PM
Waxing Crescent, 3% visible
METAR KPPA 100155Z AUTO 15003KT 10SM CLR 07/M02 A3030 RMK AO2 T00691025
Pressure 30.30 in
Visibility 10.0 miles
Clouds Clear
Windchill 42 °F
Dew Point 27 °F
Humidity 53%
Rainfall in
Snow Depth Not available.
7:36 AM 6:18 PM
Waxing Crescent, 3% visible
METAR KPPA 100155Z AUTO 15003KT 10SM CLR 07/M02 A3030 RMK AO2 T00691025

10-Day Weather Forecast

Almanac

Astronomy

Feb. 09, 2016 Rise Set
Actual Time
Civil Twilight
Nautical Twilight
Astronomical Twilight
Moon
Length of Visible Light
Length of Day
Tomorrow will be .
, % of the Moon is Illuminated

Today's Extremes

State Highs State Lows

Community

WunderPhotos

Upload Photos

1,891,760 photos uploaded!

WunderBlog® & News

Nearby

Air Quality

  Air Quality AQ Index Pollutant
Not available.

Snow Depth

Station Depth Elevation

Earthquake Activity

City Distance Mag. Time & Date
Minimum magnitude displayed is 2.5.

Coastal Water Temperatures

Place Temperature

Stations

Nearby Weather Stations

Station Location Temp. Windchill Dew Point Humidity Wind Precip. Elev Updated Type
                   

Watches & Warnings

There are currently no watches in effect.